Grizzly Air Cargo 5124


CYVR
Vancouver International Airport
Vancouver, CA
PANC
Ted Stevens Anchorage International Airport
Anchorage, US

Activity Log

Date Flight Route Aircraft Duration
11/06/2019 GRZ518 FASBO J528 TRENA J488 UAB SSR YAK JOH WITTI4 B738 2h 23m
06/30/2019 GRZ518 FASBO J528 TRENA J488 UAB SSR YAK JOH WITTI4 B738 2h 54m
06/27/2019 GRZ518 FASBO J528 TRENA J488 UAB SSR YAK JOH WITTI4 B738 3h 02m

Route Details

Aircraft Information
Primary: Boeing 737-800BCF
Backup: Boeing 727-200F
Route Data
Distance: 1154nm
Sched. Duration: 3h 20m
Avg. Duration: 2h 60m (-60m)
Times Flown: 3
Recm'd Route: FASBO J528 TRENA J488 UAB SSR YAK JOH WITTI4
Planned Altitude: 36,000ft
Origin Wx: CYVR 060800Z 22006KT 20SM FEW046 FEW077 OVC110 13/10 A2970 RMK SC1AC1AC6 SLP059
Dest. Wx: PANC 060853Z 00000KT 10SM CLR 08/06 A2985 RMK AO2 SLP109 T00830061 401940083 55000
Notes:

Financial History
Total Freight: 39,600lbs
Average Load: 13,200lbs/flt
Fuel Used: 42,322lbs
Avg. Fuel Used: 14,107lbs/flt
Fuel Expense: $33,858
Avg. Fuel Expense: $11,286
Avg. Fuel Cost: $0.80/lbs
Total Gross Income: $55,836
Pilot Pay: $697
Total Expenses: $6,186
Total Revenue: $13,749
Average Revenue: $18,612.00